Strona główna
METAR-TAF:

METAR-TAF

Lotnisko :

Lotnisko Mönchengladbach

Mönchengladbach, Niemcy

Szerokość geograficzna: 51-13-49N, Długość geograficzna: 006-30-16E, wysokość: 38 m

Aktualna obserwacja pogody

Raport powstał 26 minut temu, godzina 12:20 UTC
Wiatr 2 kt z kierunków zmiennych
Temperatura 20°C
Wilgotność 64%
Ciśnienie 1016 hPa
Widzialność 10 km lub więcej
Zachmurzenie całkowite na wysokości 2900 ft

METAR: EDLN 171220Z VRB02KT 9999 OVC029 20/13 Q1016

czas: 14:46 (12:46 UTC)

Prognoza

Raport powstał 1 godzina i 46 minut temu, godzina 11:00 UTC
Prognoza ważna od 17 godzina 12 UTC do 17 godzina 21 UTC
Wiatr 3 kt z kierunków zmiennych
Widzialność 10 km lub więcej
Przerywane chmury na wysokości 3000 ft

TAF: EDLN 171100Z 1712/1721 VRB03KT 9999 BKN030

Obserwacja i prognoza pogody dla ponad 4000 lotnisk (raport METAR i TAF).

Dostępne stacje oznaczono żółtymi i czerwonymi punktami na mapie.

Najedź kursorem aby zobaczyć nazwę stacji.

Kliknij aby zobaczyć obserwacje i prognozy pogody.

Aby zmienić mapę: kliknij na zielony przycisk z czarnym krzyżykiem, aby powiększyć; na zielony przycisk z myślnikiem, aby pomniejszyć; na zielone strzałki, aby przejść do map sąsiednich.


METAR-TAF: